Latest Weather Observations for Kununurra Airport

IDW60801

Issued at 5:43 pm WST Tuesday 22 October 2019 (issued every 10 minutes, with the page automatically refreshed every 10 minutes)

About weather observations | Map of weather stations | Latest weather observations for WA | Other Formats
Station Details ID: 002056 Name: KUNUNURRA AERO Lat: -15.78 Lon: 128.71 Height: 44.0 m
Data from the previous 72 hours. | See also: Recent months at Kununurra Airport
Date/Time
WST
Temp
°C
App
Temp
°C
Dew
Point
°C
Rel
Hum
%
Delta-T
°C
Wind Press
QNH
hPa
Press
MSL
hPa
Rain since
9am
mm
Dir  Spd
km/h
Gust
km/h
Spd
kts
Gust
kts
22/05:30pm 34.7 31.4 -0.1 11 17.2 ESE 7 9 4 5 1007.6 1007.3 0.0
22/05:00pm 36.7 33.0 0.1 10 18.4 SSE 9 13 5 7 1007.2 1006.9 0.0
22/04:30pm 38.5 34.2 -1.6 8 19.8 SE 11 15 6 8 1006.9 1006.6 0.0
22/04:00pm 39.1 33.5 -2.9 7 20.4 SE 17 20 9 11 1006.8 1006.5 0.0
22/03:30pm 39.9 34.1 -4.4 6 21.1 ESE 17 24 9 13 1006.9 1006.6 0.0
22/03:00pm 39.6 34.2 -4.6 6 21.0 E 15 26 8 14 1006.9 1006.6 0.0
22/02:30pm 39.8 34.3 -2.4 7 20.7 SE 17 20 9 11 1007.2 1006.9 0.0
22/02:00pm 40.0 33.7 -4.3 6 21.2 SSE 20 35 11 19 1007.4 1007.1 0.0
22/01:30pm 40.3 34.0 -4.1 6 21.3 SE 20 28 11 15 1007.6 1007.3 0.0
22/01:00pm 39.2 32.8 -7.3 5 21.1 SSE 19 28 10 15 1008.1 1007.8 0.0
22/12:30pm 40.1 35.1 -4.3 6 21.2 SE 13 28 7 15 1008.7 1008.4 0.0
22/12:00pm 39.5 34.6 -7.1 5 21.3 ENE 11 30 6 16 1009.2 1008.9 0.0
22/11:30am 38.6 33.3 -7.7 5 20.8 E 13 20 7 11 1010.0 1009.7 0.0
22/11:00am 38.6 31.9 -7.7 5 20.8 NE 20 26 11 14 1010.7 1010.4 0.0
22/10:30am 38.0 31.9 -8.1 5 20.5 E 17 33 9 18 1011.2 1010.9 0.0
22/10:00am 37.0 31.4 -6.5 6 19.7 NE 15 26 8 14 1011.7 1011.4 0.0
22/09:30am 36.4 29.8 -6.9 6 19.4 ENE 20 30 11 16 1012.2 1011.9 0.0
22/09:00am 35.8 29.6 -3.5 8 18.5 ENE 20 32 11 17 1012.6 1012.3 0.0
22/08:30am 35.0 28.1 0.2 11 17.3 ENE 26 33 14 18 1012.9 1012.6 0.0
22/08:00am 34.0 30.3 7.9 20 14.6 ENE 17 28 9 15 1013.0 1012.7 0.0
22/07:30am 30.8 31.7 17.5 45 8.5 N 9 13 5 7 1012.8 1012.5 0.0
22/07:00am 29.4 31.0 19.1 54 6.7 SW 9 13 5 7 1012.7 1012.4 0.0
22/06:30am 27.6 28.9 20.2 64 4.9 WSW 13 15 7 8 1012.3 1012.0 0.0
22/06:00am 24.0 24.9 18.4 71 3.5 SW 11 15 6 8 1011.8 1011.5 0.0
22/05:30am 21.2 23.4 16.4 74 2.9 CALM 0 0 0 0 1011.6 1011.3 0.0
22/05:00am 20.7 22.4 15.3 71 3.2 CALM 0 0 0 0 1011.4 1011.1 0.0
22/04:30am 20.8 21.3 14.9 69 3.5 SE 6 7 3 4 1011.1 1010.8 0.0
22/04:00am 23.9 24.5 15.9 61 4.9 E 7 9 4 5 1010.6 1010.3 0.0
22/03:30am 22.7 22.0 13.2 55 5.5 NE 9 11 5 6 1010.1 1009.8 0.0
22/03:00am 20.9 20.7 13.6 63 4.2 NNE 7 9 4 5 1009.8 1009.5 0.0
22/02:30am 21.1 22.3 13.8 63 4.2 CALM 0 0 0 0 1009.5 1009.2 0.0
22/02:00am 21.1 20.9 14.7 67 3.8 NW 9 13 5 7 1009.4 1009.1 0.0
22/01:30am 21.1 22.8 15.2 69 3.5 CALM 0 6 0 3 1009.2 1008.9 0.0
22/01:00am 21.4 22.2 13.6 61 4.5 N 2 7 1 4 1009.5 1009.2 0.0
22/12:30am 21.7 22.6 13.9 61 4.5 N 2 7 1 4 1009.6 1009.3 0.0
22/12:00am 22.2 23.9 15.3 65 4.1 CALM 0 0 0 0 1009.9 1009.6 0.0
 
Date/Time
WST
Temp
°C
App
Temp
°C
Dew
Point
°C
Rel
Hum
%
Delta-T
°C
Wind Press
QNH
hPa
Press
MSL
hPa
Rain since
9am
mm
Dir  Spd
km/h
Gust
km/h
Spd
kts
Gust
kts
21/11:30pm 22.5 24.2 15.1 63 4.4 CALM 0 0 0 0 1010.2 1009.9 0.0
21/11:00pm 23.2 24.0 12.5 51 6.1 CALM 0 0 0 0 1010.4 1010.1 0.0
21/10:30pm 23.8 24.8 13.1 51 6.2 CALM 0 0 0 0 1010.5 1010.2 0.0
21/10:00pm 24.5 25.6 13.4 50 6.5 CALM 0 0 0 0 1010.6 1010.3 0.0
21/09:30pm 25.5 26.9 14.3 50 6.7 CALM 0 0 0 0 1010.8 1010.5 0.0
21/09:00pm 26.3 26.2 13.8 46 7.4 NNE 7 11 4 6 1010.9 1010.6 0.0
21/08:30pm 25.3 26.9 15.0 53 6.2 CALM 0 7 0 4 1010.7 1010.4 0.0
21/08:00pm 27.7 28.6 12.9 40 8.7 CALM 0 0 0 0 1010.5 1010.2 0.0
21/07:30pm 28.3 28.1 13.0 39 9.0 NNW 6 6 3 3 1010.4 1010.1 0.0
21/07:22pm 29.2 29.0 13.0 37 9.6 N 6 9 3 5 1010.3 1010.0 0.0
21/07:00pm 31.4 30.9 12.2 30 11.3 NNW 6 7 3 4 1010.1 1009.8 0.0
21/06:45pm 30.4 29.7 11.9 32 10.8 NNW 7 9 4 5 1009.9 1009.6 0.0
21/06:30pm 31.9 30.6 10.0 26 12.5 ESE 7 11 4 6 1009.6 1009.3 0.0
21/06:00pm 32.3 31.4 12.5 30 11.8 ESE 9 13 5 7 1009.3 1009.0 0.0
21/05:30pm 35.4 33.7 9.7 21 14.8 ESE 9 13 5 7 1009.0 1008.7 0.0
21/05:00pm 37.8 35.8 8.6 17 16.8 SE 9 13 5 7 1008.6 1008.3 0.0
21/04:30pm 38.4 36.7 9.9 18 16.7 SSE 9 11 5 6 1008.4 1008.1 0.0
21/04:00pm 39.7 37.6 8.2 15 18.2 ESE 9 13 5 7 1008.3 1008.0 0.0
21/03:30pm 39.7 37.6 8.2 15 18.1 NW 9 13 5 7 1008.3 1008.0 0.0
21/03:00pm 39.6 37.1 8.1 15 18.1 SE 11 17 6 9 1008.5 1008.2 0.0
21/02:30pm 40.1 38.3 9.5 16 18.0 SSE 9 20 5 11 1008.7 1008.4 0.0
21/02:00pm 39.6 37.3 9.1 16 17.8 NE 11 20 6 11 1009.2 1008.9 0.0
21/01:30pm 39.3 37.4 10.6 18 17.1 NE 11 19 6 10 1009.3 1009.0 0.0
21/01:00pm 39.0 36.1 9.5 17 17.3 E 15 24 8 13 1009.6 1009.3 0.0
21/12:30pm 40.1 36.2 9.5 16 18.0 E 20 28 11 15 1010.0 1009.7 0.0
21/12:00pm 39.9 36.8 10.2 17 17.6 ENE 17 33 9 18 1010.6 1010.3 0.0
21/11:30am 38.4 35.0 10.7 19 16.4 NE 19 35 10 19 1011.2 1010.9 0.0
21/11:00am 38.7 35.3 12.5 21 16.0 NE 22 35 12 19 1011.8 1011.5 0.0
21/10:30am 36.4 35.9 15.0 28 13.4 NNE 11 24 6 13 1012.3 1012.0 0.0
21/10:00am 36.2 36.5 16.9 32 12.4 N 11 24 6 13 1012.9 1012.6 0.0
21/09:30am 35.8 35.1 16.5 31 12.3 NE 15 20 8 11 1013.5 1013.2 0.0
21/09:00am 35.2 35.1 17.0 34 11.7 NNW 13 20 7 11 1013.8 1013.5 0.0
21/08:30am 33.6 34.5 19.3 43 9.4 NNE 13 19 7 10 1013.9 1013.6 0.0
21/08:00am 32.3 33.8 20.5 49 7.9 N 13 19 7 10 1013.9 1013.6 0.0
21/07:30am 30.7 33.7 22.0 59 5.9 N 9 15 5 8 1013.9 1013.6 0.0
21/07:00am 29.1 33.9 22.8 69 4.3 SSE 2 7 1 4 1013.9 1013.6 0.0
21/06:30am 27.6 32.5 23.0 76 3.1 SSE 2 6 1 3 1013.8 1013.5 0.0
21/06:00am 25.5 30.3 22.8 85 1.8 SSE 2 6 1 3 1013.4 1013.1 0.0
21/05:30am 23.3 26.8 19.5 79 2.4 CALM 0 6 0 3 1013.3 1013.0 0.0
21/05:00am 22.8 26.3 21.1 90 1.1 S 4 6 2 3 1012.7 1012.4 0.0
21/04:30am 23.0 25.9 19.8 82 2.1 SSE 4 7 2 4 1012.2 1011.9 0.0
21/04:00am 23.4 27.0 19.8 80 2.3 CALM 0 0 0 0 1011.9 1011.6 0.0
21/03:30am 23.2 26.3 18.7 76 2.8 CALM 0 0 0 0 1011.4 1011.1 0.0
21/03:00am 24.6 27.9 19.9 75 3.0 NNW 2 7 1 4 1011.3 1011.0 0.0
21/02:30am 25.9 28.4 20.2 71 3.7 NNE 7 11 4 6 1011.3 1011.0 0.0
21/02:00am 26.4 26.8 19.8 67 4.3 NE 17 22 9 12 1010.8 1010.5 0.0
21/01:30am 24.1 25.1 15.3 58 5.3 SSW 4 7 2 4 1010.2 1009.9 0.0
21/01:00am 24.4 25.4 13.3 50 6.5 CALM 0 0 0 0 1010.2 1009.9 0.0
21/12:30am 25.1 25.1 13.6 49 6.8 NW 6 7 3 4 1010.2 1009.9 0.0
21/12:00am 26.2 25.2 13.3 45 7.6 NNE 11 15 6 8 1010.3 1010.0 0.0
 
Date/Time
WST
Temp
°C
App
Temp
°C
Dew
Point
°C
Rel
Hum
%
Delta-T
°C
Wind Press
QNH
hPa
Press
MSL
hPa
Rain since
9am
mm
Dir  Spd
km/h
Gust
km/h
Spd
kts
Gust
kts
20/11:37pm 29.6 28.0 13.8 38 9.5 NE 15 26 8 14 1010.2 1009.9 0.0
20/11:30pm 23.9 24.2 15.1 58 5.3 E 7 11 4 6 1010.1 1009.8 0.0
20/11:00pm 24.6 26.2 15.0 55 5.8 CALM 0 0 0 0 1010.1 1009.8 0.0
20/10:30pm 24.7 26.1 14.5 53 6.1 CALM 0 0 0 0 1010.5 1010.2 0.0
20/10:00pm 25.9 26.9 14.4 49 6.9 ENE 2 6 1 3 1010.8 1010.5 0.0
20/09:30pm 26.6 27.8 13.7 45 7.6 CALM 0 6 0 3 1010.9 1010.6 0.0
20/09:00pm 27.0 27.0 14.1 45 7.7 NNE 7 11 4 6 1011.0 1010.7 0.0
20/08:30pm 28.6 28.8 14.1 41 8.7 NNW 6 7 3 4 1011.0 1010.7 0.0
20/08:00pm 31.7 31.0 12.0 30 11.6 NNW 7 11 4 6 1010.8 1010.5 0.0
20/07:30pm 30.4 29.6 12.8 34 10.4 NW 9 13 5 7 1010.6 1010.3 0.0
20/07:00pm 29.7 31.1 14.3 39 9.3 CALM 0 0 0 0 1010.1 1009.8 0.0
20/06:30pm 31.1 32.2 13.4 34 10.6 CALM 0 0 0 0 1009.7 1009.4 0.0
20/06:00pm 32.2 33.3 13.4 32 11.3 CALM 0 0 0 0 1009.4 1009.1 0.0
20/05:30pm 34.3 35.1 12.6 27 13.0 CALM 0 0 0 0 1009.1 1008.8 0.0
20/05:00pm 38.3 36.5 8.1 16 17.3 SE 7 9 4 5 1008.8 1008.5 0.0
20/04:30pm 39.7 36.6 7.2 14 18.4 ESE 13 20 7 11 1008.6 1008.3 0.0
20/04:00pm 40.5 37.0 5.6 12 19.4 E 13 19 7 10 1008.4 1008.1 0.0
20/03:30pm 41.1 37.7 6.0 12 19.7 ENE 13 20 7 11 1008.4 1008.1 0.0
20/03:00pm 40.7 38.4 9.0 15 18.6 E 11 20 6 11 1008.6 1008.3 0.0
20/02:30pm 41.0 38.8 12.0 18 17.7 NE 15 30 8 16 1008.7 1008.4 0.0
20/02:00pm 39.6 37.3 11.7 19 16.9 ENE 15 20 8 11 1009.1 1008.8 0.0
20/01:30pm 41.2 39.0 12.1 18 17.8 ENE 15 24 8 13 1009.5 1009.2 0.0
20/01:00pm 40.6 37.8 12.5 19 17.3 ENE 19 30 10 16 1009.8 1009.5 0.0
20/12:30pm 40.8 38.8 12.6 19 17.3 E 15 24 8 13 1010.2 1009.9 0.0
20/12:00pm 39.9 36.1 11.1 18 17.3 NE 22 35 12 19 1010.6 1010.3 0.0
20/11:30am 40.8 37.5 10.9 17 18.0 NE 19 35 10 19 1011.3 1011.0 0.0
20/11:00am 39.5 36.7 13.1 21 16.3 NNE 20 32 11 17 1011.8 1011.5 0.0
20/10:30am 37.9 35.5 14.5 25 14.6 NNE 20 30 11 16 1012.5 1012.2 0.0
20/10:00am 37.6 36.4 17.1 30 13.3 NNE 19 26 10 14 1013.0 1012.7 0.0
20/09:30am 35.8 34.6 17.0 32 12.1 NNE 19 28 10 15 1013.6 1013.3 0.0
20/09:00am 35.2 34.3 18.3 36 11.0 NNE 20 32 11 17 1014.0 1013.7 0.0
20/08:30am 33.7 33.7 19.0 42 9.7 NNE 17 22 9 12 1014.2 1013.9 0.0
20/08:00am 32.5 32.1 19.4 46 8.6 NNE 20 26 11 14 1014.4 1014.1 0.0
20/07:30am 31.5 32.0 20.1 50 7.6 N 17 24 9 13 1014.3 1014.0 0.0
20/07:00am 30.8 32.5 21.0 56 6.6 NNE 13 19 7 10 1014.1 1013.8 0.0
20/06:30am 29.9 32.2 22.1 63 5.3 ENE 13 19 7 10 1014.0 1013.7 0.0
20/06:00am 29.1 32.4 22.6 68 4.4 ENE 9 11 5 6 1013.7 1013.4 0.0
20/05:30am 28.4 31.6 23.1 73 3.6 NE 11 15 6 8 1013.2 1012.9 0.0
20/05:00am 28.1 30.9 23.0 74 3.5 NNE 13 17 7 9 1012.8 1012.5 0.0
20/04:30am 28.3 33.2 23.0 73 3.6 E 2 7 1 4 1012.6 1012.3 0.0
20/04:00am 28.3 31.1 21.6 67 4.5 NNE 9 15 5 8 1012.3 1012.0 0.0
20/03:30am 28.1 28.8 20.4 63 5.1 NNE 17 20 9 11 1011.4 1011.1 0.0
20/03:00am 28.4 30.6 20.4 62 5.3 N 9 17 5 9 1011.3 1011.0 0.0
20/02:30am 29.2 28.9 18.3 51 7.0 NNE 17 20 9 11 1010.8 1010.5 0.0
20/02:00am 29.2 28.5 16.4 46 8.0 NE 15 24 8 13 1010.6 1010.3 0.0
20/01:30am 27.3 30.2 19.9 64 4.8 SE 4 9 2 5 1010.3 1010.0 0.0
20/01:00am 27.3 30.6 19.1 61 5.3 CALM 0 0 0 0 1010.3 1010.0 0.0
20/12:30am 28.1 29.9 18.2 55 6.3 SW 6 9 3 5 1010.9 1010.6 0.0
20/12:00am 26.9 28.7 18.2 59 5.5 NW 6 9 3 5 1011.1 1010.8 0.0
 
Date/Time
WST
Temp
°C
App
Temp
°C
Dew
Point
°C
Rel
Hum
%
Delta-T
°C
Wind Press
QNH
hPa
Press
MSL
hPa
Rain since
9am
mm
Dir  Spd
km/h
Gust
km/h
Spd
kts
Gust
kts
19/11:30pm 27.4 30.3 18.1 57 5.9 CALM 0 0 0 0 1011.5 1011.2 0.0
19/11:00pm 28.0 30.9 18.1 55 6.3 CALM 0 0 0 0 1011.4 1011.1 0.0
19/10:30pm 28.8 31.3 17.3 49 7.3 CALM 0 0 0 0 1011.6 1011.3 0.0
19/10:00pm 28.9 31.5 17.4 49 7.3 CALM 0 0 0 0 1011.7 1011.4 0.0
19/09:30pm 29.8 31.5 18.6 51 7.2 N 7 9 4 5 1011.8 1011.5 0.0
19/09:00pm 29.8 33.1 19.2 53 6.9 CALM 0 0 0 0 1011.8 1011.5 0.0
19/08:30pm 30.1 33.0 18.2 49 7.6 CALM 0 0 0 0 1011.7 1011.4 0.0
19/08:00pm 30.1 31.9 18.2 49 7.6 ESE 6 11 3 6 1011.5 1011.2 0.0
19/07:30pm 30.3 32.6 17.7 46 8.0 S 2 6 1 3 1011.2 1010.9 0.0
19/07:00pm 30.8 33.8 18.5 47 8.0 CALM 0 0 0 0 1010.9 1010.6 0.0
19/06:30pm 31.2 34.1 18.2 46 8.4 CALM 0 0 0 0 1010.7 1010.4 0.0
19/06:00pm 32.4 35.3 18.2 42 9.2 CALM 0 0 0 0 1010.4 1010.1 0.0

Other formats

Comma delimited format used in spreadsheet applications
http://www.bom.gov.au/fwo/IDW60801/IDW60801.94216.axf

JavaScript Object Notation format (JSON) in row-major order
http://www.bom.gov.au/fwo/IDW60801/IDW60801.94216.json

Data quality

Most of these data are generated automatically and are frequently updated. Quality checks on data are not normally performed. It is possible for incorrect values to appear. Refer to information at About Latest Weather Observations and please check the disclaimer before using these data.